createdAt,value
2022-09-12T00:00:38.909Z,12.40
2022-09-12T00:03:07.110Z,12.26
2022-09-12T00:05:35.418Z,12.19
2022-09-12T00:08:04.940Z,12.16
2022-09-12T00:10:33.133Z,12.07
2022-09-12T00:13:02.780Z,11.96
2022-09-12T00:15:30.988Z,11.91
2022-09-12T00:17:59.189Z,11.62
2022-09-12T00:20:27.340Z,11.80
2022-09-12T00:22:55.501Z,11.77
2022-09-12T00:25:23.767Z,11.68
2022-09-12T00:27:51.967Z,11.68
2022-09-12T00:30:21.739Z,11.62
2022-09-12T00:32:51.701Z,11.53
2022-09-12T00:35:19.853Z,11.50
2022-09-12T00:37:48.018Z,11.44
2022-09-12T00:40:16.280Z,11.40
2022-09-12T00:42:44.470Z,11.37
2022-09-12T00:45:24.739Z,11.31
2022-09-12T00:47:53.021Z,11.25
2022-09-12T00:50:21.280Z,11.19
2022-09-12T00:52:51.760Z,11.19
2022-09-12T00:55:22.718Z,11.13
2022-09-12T00:57:53.030Z,11.13
2022-09-12T01:00:25.368Z,11.09
2022-09-12T01:02:56.640Z,11.05
2022-09-12T01:05:25.765Z,10.98
2022-09-12T01:07:54.124Z,10.80
2022-09-12T01:10:22.468Z,10.95
2022-09-12T01:12:50.832Z,10.89
2022-09-12T01:15:18.991Z,10.81
2022-09-12T01:18:01.236Z,10.74
2022-09-12T01:21:06.441Z,10.78
2022-09-12T01:23:59.274Z,10.79
2022-09-12T01:27:21.320Z,10.78
2022-09-12T01:30:05.639Z,10.74
2022-09-12T01:32:44.891Z,10.71
2022-09-12T01:35:21.300Z,10.73
2022-09-12T01:37:55.875Z,10.80
2022-09-12T01:40:27.008Z,10.76
2022-09-12T01:42:59.121Z,10.71
2022-09-12T01:45:30.702Z,10.73
2022-09-12T01:48:03.351Z,10.66
2022-09-12T01:50:34.252Z,10.59
2022-09-12T01:53:05.074Z,10.62
2022-09-12T01:55:36.241Z,10.55
2022-09-12T01:58:07.632Z,10.59
2022-09-12T02:00:39.116Z,10.62
2022-09-12T02:03:12.695Z,10.64
2022-09-12T02:05:43.322Z,10.65
2022-09-12T02:08:14.065Z,10.57
2022-09-12T02:10:45.061Z,10.60
2022-09-12T02:13:17.225Z,10.61
2022-09-12T02:15:47.786Z,10.66
2022-09-12T02:18:18.526Z,10.73
2022-09-12T02:20:49.183Z,10.64
2022-09-12T02:23:21.982Z,10.66
2022-09-12T02:25:52.912Z,10.64
2022-09-12T02:28:25.072Z,10.62
2022-09-12T02:30:58.307Z,10.66
2022-09-12T02:33:32.075Z,10.62
2022-09-12T02:36:06.855Z,10.62
2022-09-12T02:39:05.887Z,10.74
2022-09-12T02:41:34.105Z,10.81
2022-09-12T02:44:03.686Z,10.85
2022-09-12T02:46:35.915Z,10.95
2022-09-12T02:49:05.446Z,10.97
2022-09-12T02:51:33.905Z,10.99
2022-09-12T02:54:03.300Z,11.03
2022-09-12T02:56:32.417Z,11.06
2022-09-12T02:59:03.246Z,11.04
2022-09-12T03:01:42.335Z,11.08
2022-09-12T03:04:50.637Z,10.92
2022-09-12T03:07:31.679Z,11.19
2022-09-12T03:10:05.568Z,11.11
2022-09-12T03:12:43.275Z,11.10
2022-09-12T03:15:24.365Z,11.13
2022-09-12T03:18:06.730Z,11.09
2022-09-12T03:20:46.431Z,11.05
2022-09-12T03:23:22.248Z,11.03
2022-09-12T03:25:52.977Z,11.06
2022-09-12T03:28:21.645Z,11.07
2022-09-12T03:30:51.602Z,11.04
2022-09-12T03:33:21.256Z,11.06
2022-09-12T03:35:50.988Z,11.01
2022-09-12T03:38:19.425Z,11.10
2022-09-12T03:40:51.359Z,11.14
2022-09-12T03:43:22.226Z,11.10
2022-09-12T03:45:52.394Z,11.11
2022-09-12T03:48:20.648Z,11.11
2022-09-12T03:50:50.177Z,11.16
2022-09-12T03:53:18.328Z,11.21
2022-09-12T03:55:46.468Z,11.26
2022-09-12T03:58:14.676Z,11.21
2022-09-12T04:00:43.299Z,11.26
2022-09-12T04:03:11.588Z,11.21
2022-09-12T04:05:39.677Z,11.26
2022-09-12T04:08:09.246Z,11.25
2022-09-12T04:10:37.408Z,11.26
2022-09-12T04:13:05.558Z,11.25
2022-09-12T04:15:33.658Z,11.13
2022-09-12T04:18:05.744Z,11.16
2022-09-12T04:20:34.319Z,11.21
2022-09-12T04:23:02.446Z,11.08
2022-09-12T04:25:31.978Z,10.93
2022-09-12T04:28:00.110Z,11.05
2022-09-12T04:30:28.288Z,11.06
2022-09-12T04:32:56.448Z,11.02
2022-09-12T04:35:24.506Z,10.94
2022-09-12T04:37:52.686Z,10.81
2022-09-12T04:40:21.569Z,10.55
2022-09-12T04:42:51.188Z,10.64
2022-09-12T04:45:19.508Z,10.71
2022-09-12T04:47:47.668Z,10.62
2022-09-12T04:50:16.016Z,10.88
2022-09-12T04:52:44.126Z,10.84
2022-09-12T04:55:12.267Z,10.87
2022-09-12T04:57:40.409Z,10.86
2022-09-12T05:00:14.437Z,10.95
2022-09-12T05:02:43.129Z,10.98
2022-09-12T05:05:11.720Z,10.94
2022-09-12T05:07:40.178Z,10.98
2022-09-12T05:10:09.579Z,10.98
2022-09-12T05:12:37.696Z,11.01
2022-09-12T05:15:09.827Z,11.09
2022-09-12T05:17:39.311Z,11.13
2022-09-12T05:20:09.699Z,11.18
2022-09-12T05:22:37.740Z,11.15
2022-09-12T05:25:07.023Z,11.15
2022-09-12T05:27:35.119Z,11.11
2022-09-12T05:30:03.177Z,11.17
2022-09-12T05:32:33.559Z,11.22
2022-09-12T05:35:03.007Z,11.24
2022-09-12T05:37:31.060Z,11.07
2022-09-12T05:39:59.752Z,11.08
2022-09-12T05:42:27.802Z,11.31
2022-09-12T05:44:55.802Z,11.37
2022-09-12T05:47:27.122Z,11.50
2022-09-12T05:49:55.129Z,11.47
2022-09-12T05:52:24.630Z,11.48
2022-09-12T05:54:52.610Z,11.40
2022-09-12T05:57:20.679Z,11.31
2022-09-12T05:59:49.840Z,11.52
2022-09-12T06:02:18.426Z,11.64
2022-09-12T06:04:46.490Z,11.68
2022-09-12T06:07:15.690Z,11.59
2022-09-12T06:09:45.070Z,11.69
2022-09-12T06:12:13.870Z,11.78
2022-09-12T06:14:41.930Z,11.84
2022-09-12T06:17:10.028Z,11.68
2022-09-12T06:19:38.060Z,11.92
2022-09-12T06:22:06.212Z,11.90
2022-09-12T06:24:34.471Z,11.91
2022-09-12T06:27:04.220Z,12.00
2022-09-12T06:29:33.130Z,11.97
2022-09-12T06:32:02.090Z,12.13
2022-09-12T06:34:30.631Z,11.98
2022-09-12T06:36:58.970Z,12.16
2022-09-12T06:39:27.072Z,12.12
2022-09-12T06:41:55.658Z,12.24
2022-09-12T06:44:25.150Z,12.29
2022-09-12T06:46:54.179Z,12.38
2022-09-12T06:49:22.270Z,12.38
2022-09-12T06:51:50.538Z,12.47
2022-09-12T06:54:20.139Z,12.54
2022-09-12T06:56:48.310Z,12.14
2022-09-12T06:59:16.441Z,12.00
2022-09-12T07:01:46.067Z,12.11
2022-09-12T07:04:14.288Z,12.19
2022-09-12T07:06:44.765Z,12.15
2022-09-12T07:09:16.296Z,12.44
2022-09-12T07:11:45.612Z,12.72
2022-09-12T07:14:15.510Z,12.83
2022-09-12T07:16:45.528Z,12.96
2022-09-12T07:19:13.831Z,13.16
2022-09-12T07:21:42.341Z,13.36
2022-09-12T07:24:11.481Z,13.61
2022-09-12T07:26:40.743Z,13.61
2022-09-12T07:29:35.255Z,13.61
2022-09-12T07:32:01.822Z,13.75
2022-09-12T07:34:31.138Z,13.83
2022-09-12T07:36:59.304Z,13.90
2022-09-12T07:39:27.710Z,13.94
2022-09-12T07:41:56.258Z,13.92
2022-09-12T07:44:24.368Z,14.16
2022-09-12T07:46:52.540Z,14.05
2022-09-12T07:49:22.039Z,13.86
2022-09-12T07:51:50.214Z,13.77
2022-09-12T07:54:18.572Z,13.60
2022-09-12T07:56:47.010Z,13.29
2022-09-12T07:59:21.631Z,13.29
2022-09-12T08:02:04.166Z,13.40
2022-09-12T08:04:37.231Z,13.61
2022-09-12T08:07:06.742Z,13.43
2022-09-12T08:09:34.751Z,13.80
2022-09-12T08:12:03.402Z,14.44
2022-09-12T08:14:31.521Z,14.44
2022-09-12T08:16:59.594Z,14.68
2022-09-12T08:19:28.252Z,14.56
2022-09-12T08:21:57.751Z,14.44
2022-09-12T08:24:26.201Z,14.36
2022-09-12T08:26:54.305Z,15.02
2022-09-12T08:29:22.721Z,15.15
2022-09-12T08:31:55.143Z,14.72
2022-09-12T08:34:26.422Z,14.60
2022-09-12T08:36:55.354Z,14.28
2022-09-12T08:39:25.045Z,14.48
2022-09-12T08:41:59.769Z,14.41
2022-09-12T08:44:43.462Z,14.66
2022-09-12T08:47:21.910Z,14.68
2022-09-12T08:49:57.433Z,14.32
2022-09-12T08:52:29.323Z,14.01
2022-09-12T08:54:58.919Z,14.48
2022-09-12T08:57:27.054Z,14.74
2022-09-12T08:59:55.373Z,14.99
2022-09-12T09:02:34.643Z,15.34
2022-09-12T09:05:12.114Z,15.74
2022-09-12T09:07:55.805Z,15.54
2022-09-12T09:10:29.654Z,15.47
2022-09-12T09:13:03.233Z,15.75
2022-09-12T09:15:40.844Z,15.55
2022-09-12T09:18:13.432Z,15.91
2022-09-12T09:20:46.914Z,16.03
2022-09-12T09:23:18.063Z,15.89
2022-09-12T09:25:52.784Z,16.23
2022-09-12T09:28:24.444Z,15.90
2022-09-12T09:30:52.636Z,15.60
2022-09-12T09:33:24.161Z,15.81
2022-09-12T09:35:58.474Z,15.77
2022-09-12T09:38:30.845Z,15.83
2022-09-12T09:41:19.137Z,16.29
2022-09-12T09:43:47.263Z,16.41
2022-09-12T09:46:16.320Z,16.60
2022-09-12T09:48:47.275Z,16.76
2022-09-12T09:51:18.664Z,16.64
2022-09-12T09:53:49.873Z,15.97
2022-09-12T09:56:28.724Z,15.94
2022-09-12T09:58:56.942Z,15.57
2022-09-12T10:01:25.709Z,15.81
2022-09-12T10:03:55.200Z,15.79
2022-09-12T10:06:34.511Z,15.71
2022-09-12T10:09:09.204Z,15.67
2022-09-12T10:11:43.702Z,15.69
2022-09-12T10:14:30.255Z,15.66
2022-09-12T10:16:58.515Z,15.45
2022-09-12T10:19:35.645Z,15.63
2022-09-12T10:22:05.063Z,15.62
2022-09-12T10:24:36.823Z,15.73
2022-09-12T10:27:11.338Z,15.91
2022-09-12T10:29:44.145Z,16.02
2022-09-12T10:32:13.226Z,16.14
2022-09-12T10:34:46.348Z,16.24
2022-09-12T10:37:20.115Z,16.36
2022-09-12T10:39:53.992Z,16.06
2022-09-12T10:42:49.186Z,16.32
2022-09-12T10:45:26.535Z,16.16
2022-09-12T10:47:55.635Z,16.15
2022-09-12T10:50:27.117Z,16.46
2022-09-12T10:52:55.497Z,16.79
2022-09-12T10:55:33.767Z,16.65
2022-09-12T10:58:10.305Z,16.82
2022-09-12T11:00:42.096Z,16.56
2022-09-12T11:03:17.483Z,16.59
2022-09-12T11:05:54.325Z,16.39
2022-09-12T11:08:35.189Z,16.73
2022-09-12T11:11:07.836Z,16.58
2022-09-12T11:13:52.754Z,16.49
2022-09-12T11:16:28.764Z,16.71
2022-09-12T11:19:26.950Z,16.72
2022-09-12T11:22:11.006Z,16.71
2022-09-12T11:24:57.042Z,16.79
2022-09-12T11:27:39.356Z,16.80
2022-09-12T11:30:12.389Z,17.18
2022-09-12T11:33:00.298Z,17.44
2022-09-12T11:35:30.397Z,17.63
2022-09-12T11:38:18.136Z,17.62
2022-09-12T11:40:47.566Z,17.57
2022-09-12T11:43:23.996Z,17.45
2022-09-12T11:45:54.060Z,17.37
2022-09-12T11:48:35.355Z,17.72
2022-09-12T11:51:05.176Z,17.73
2022-09-12T11:53:38.320Z,17.50
2022-09-12T11:56:09.907Z,17.58
2022-09-12T11:58:38.847Z,17.45
2022-09-12T12:01:14.068Z,17.43
2022-09-12T12:03:43.817Z,17.94
2022-09-12T12:06:14.126Z,18.21
2022-09-12T12:08:44.097Z,18.16
2022-09-12T12:11:14.087Z,18.32
2022-09-12T12:13:47.387Z,18.04
2022-09-12T12:16:24.515Z,18.20
2022-09-12T12:18:57.007Z,18.50
2022-09-12T12:21:40.946Z,18.64
2022-09-12T12:24:18.767Z,18.48
2022-09-12T12:27:00.517Z,18.76
2022-09-12T12:29:43.528Z,18.78
2022-09-12T12:32:27.219Z,19.37
2022-09-12T12:35:34.869Z,20.71
2022-09-12T12:38:03.788Z,21.95
2022-09-12T12:40:32.977Z,22.84
2022-09-12T12:43:08.378Z,23.29
2022-09-12T12:46:13.153Z,24.22
2022-09-12T12:49:11.049Z,24.10
2022-09-12T12:51:57.211Z,25.01
2022-09-12T12:54:46.938Z,25.40
2022-09-12T12:57:28.756Z,25.57
2022-09-12T12:59:59.748Z,25.57
2022-09-12T13:02:32.265Z,25.37
2022-09-12T13:05:06.068Z,25.51
2022-09-12T13:07:36.339Z,25.27
2022-09-12T13:10:07.061Z,25.27
2022-09-12T13:12:36.967Z,25.36
2022-09-12T13:15:07.729Z,25.34
2022-09-12T13:17:39.738Z,24.94
2022-09-12T13:20:28.323Z,25.36
2022-09-12T13:22:57.444Z,24.54
2022-09-12T13:25:31.582Z,24.22
2022-09-12T13:28:18.678Z,24.41
2022-09-12T13:30:49.067Z,24.06
2022-09-12T13:33:23.506Z,23.99
2022-09-12T13:36:07.006Z,24.24
2022-09-12T13:38:40.638Z,23.80
2022-09-12T13:41:23.320Z,23.73
2022-09-12T13:43:51.699Z,23.47
2022-09-12T13:46:28.300Z,22.96
2022-09-12T13:48:57.429Z,22.57
2022-09-12T13:51:29.171Z,23.15
2022-09-12T13:54:00.388Z,22.33
2022-09-12T13:56:28.510Z,22.08
2022-09-12T13:58:58.238Z,22.23
2022-09-12T14:01:37.348Z,21.13
2022-09-12T14:04:33.659Z,21.21
2022-09-12T14:07:04.820Z,20.96
2022-09-12T14:09:36.340Z,20.65
2022-09-12T14:12:04.509Z,20.59
2022-09-12T14:14:35.849Z,20.42
2022-09-12T14:17:20.748Z,20.52
2022-09-12T14:19:51.259Z,20.60
2022-09-12T14:22:20.766Z,20.49
2022-09-12T14:24:51.837Z,20.81
2022-09-12T14:27:23.449Z,20.98
2022-09-12T14:29:53.621Z,20.78
2022-09-12T14:32:24.972Z,20.84
2022-09-12T14:35:15.491Z,20.73
2022-09-12T14:37:46.137Z,20.46
2022-09-12T14:40:18.119Z,20.60
2022-09-12T14:42:46.883Z,20.58
2022-09-12T14:45:18.271Z,20.57
2022-09-12T14:47:50.561Z,20.16
2022-09-12T14:50:20.601Z,20.30
2022-09-12T14:53:04.028Z,20.18
2022-09-12T14:55:33.721Z,19.98
2022-09-12T14:58:26.352Z,19.72
2022-09-12T15:00:59.602Z,19.55
2022-09-12T15:03:30.260Z,19.58
2022-09-12T15:05:58.629Z,19.56
2022-09-12T15:08:28.269Z,19.46
2022-09-12T15:10:56.849Z,19.48
2022-09-12T15:13:27.102Z,19.42
2022-09-12T15:15:56.777Z,19.62
2022-09-12T15:18:26.420Z,19.95
2022-09-12T15:20:56.748Z,19.85
2022-09-12T15:23:40.970Z,19.72
2022-09-12T15:26:09.263Z,19.40
2022-09-12T15:28:37.926Z,19.10
2022-09-12T15:31:14.139Z,19.13
2022-09-12T15:33:44.715Z,19.15
2022-09-12T15:36:16.640Z,19.23
2022-09-12T15:38:47.129Z,19.00
2022-09-12T15:41:18.090Z,18.90
2022-09-12T15:43:47.411Z,19.03
2022-09-12T15:46:16.295Z,19.17
2022-09-12T15:48:44.722Z,19.14
2022-09-12T15:51:15.671Z,19.03
2022-09-12T15:53:44.616Z,19.18
2022-09-12T15:56:15.128Z,19.26
2022-09-12T15:58:57.791Z,19.20
2022-09-12T16:01:27.461Z,19.17
2022-09-12T16:03:55.810Z,18.73
2022-09-12T16:06:23.801Z,18.74
2022-09-12T16:08:53.053Z,18.62
2022-09-12T16:11:25.223Z,18.55
2022-09-12T16:13:53.975Z,18.77
2022-09-12T16:16:23.022Z,18.31
2022-09-12T16:18:51.121Z,18.44
2022-09-12T16:21:19.158Z,18.47
2022-09-12T16:23:48.118Z,18.50
2022-09-12T16:26:16.210Z,18.41
2022-09-12T16:28:46.108Z,18.14
2022-09-12T16:31:15.334Z,18.54
2022-09-12T16:33:43.459Z,18.63
2022-09-12T16:36:13.232Z,18.50
2022-09-12T16:38:44.640Z,18.46
2022-09-12T16:41:12.799Z,18.37
2022-09-12T16:43:41.060Z,18.41
2022-09-12T16:46:12.161Z,18.42
2022-09-12T16:48:49.362Z,18.04
2022-09-12T16:51:21.391Z,18.13
2022-09-12T16:53:49.660Z,17.90
2022-09-12T16:56:17.700Z,17.88
2022-09-12T16:58:46.392Z,17.61
2022-09-12T17:01:17.631Z,17.45
2022-09-12T17:03:45.818Z,17.39
2022-09-12T17:06:15.570Z,17.23
2022-09-12T17:08:45.018Z,17.11
2022-09-12T17:11:14.901Z,16.93
2022-09-12T17:14:03.337Z,16.85
2022-09-12T17:16:32.883Z,16.72
2022-09-12T17:19:01.214Z,16.54
2022-09-12T17:21:29.246Z,16.43
2022-09-12T17:23:57.452Z,16.30
2022-09-12T17:26:25.431Z,16.18
2022-09-12T17:28:53.586Z,16.09
2022-09-12T17:31:21.668Z,15.96
2022-09-12T17:33:51.151Z,15.86
2022-09-12T17:36:19.401Z,15.73
2022-09-12T17:38:47.516Z,15.58
2022-09-12T17:41:17.762Z,15.42
2022-09-12T17:43:46.589Z,15.29
2022-09-12T17:46:15.084Z,15.15
2022-09-12T17:48:43.230Z,15.00
2022-09-12T17:51:15.018Z,14.65
2022-09-12T17:53:43.320Z,14.80
2022-09-12T17:56:12.806Z,14.71
2022-09-12T17:58:40.977Z,14.62
2022-09-12T18:01:29.337Z,14.56
2022-09-12T18:03:58.942Z,14.48
2022-09-12T18:06:28.571Z,14.41
2022-09-12T18:08:56.753Z,14.34
2022-09-12T18:11:24.723Z,14.30
2022-09-12T18:13:52.752Z,14.23
2022-09-12T18:16:20.854Z,14.19
2022-09-12T18:18:51.153Z,14.12
2022-09-12T18:21:19.935Z,14.07
2022-09-12T18:23:49.502Z,14.00
2022-09-12T18:26:17.532Z,13.95
2022-09-12T18:28:46.442Z,13.88
2022-09-12T18:31:16.462Z,13.85
2022-09-12T18:33:44.845Z,13.82
2022-09-12T18:36:14.369Z,13.80
2022-09-12T18:38:43.182Z,13.55
2022-09-12T18:41:14.803Z,13.76
2022-09-12T18:43:43.285Z,13.51
2022-09-12T18:46:13.874Z,13.70
2022-09-12T18:48:42.082Z,13.65
2022-09-12T18:51:12.823Z,13.57
2022-09-12T18:53:40.911Z,13.55
2022-09-12T18:56:10.790Z,13.48
2022-09-12T18:58:42.282Z,13.18
2022-09-12T19:01:11.719Z,13.37
2022-09-12T19:03:40.056Z,13.37
2022-09-12T19:06:09.803Z,13.35
2022-09-12T19:08:37.974Z,13.35
2022-09-12T19:11:07.203Z,13.31
2022-09-12T19:13:36.571Z,13.25
2022-09-12T19:16:09.379Z,13.26
2022-09-12T19:18:38.203Z,13.26
2022-09-12T19:21:07.778Z,12.95
2022-09-12T19:23:36.611Z,13.18
2022-09-12T19:26:06.693Z,13.13
2022-09-12T19:28:34.953Z,13.08
2022-09-12T19:31:07.571Z,13.03
2022-09-12T19:33:36.104Z,12.99
2022-09-12T19:36:04.804Z,12.73
2022-09-12T19:38:33.091Z,12.89
2022-09-12T19:41:02.413Z,12.87
2022-09-12T19:43:31.113Z,12.83
2022-09-12T19:45:59.689Z,12.80
2022-09-12T19:48:29.304Z,12.76
2022-09-12T19:51:01.845Z,12.50
2022-09-12T19:53:30.863Z,12.68
2022-09-12T19:56:02.964Z,12.65
2022-09-12T19:58:31.504Z,12.64
2022-09-12T20:01:09.323Z,12.50
2022-09-12T20:03:39.074Z,12.49
2022-09-12T20:06:09.437Z,12.45
2022-09-12T20:08:39.716Z,12.46
2022-09-12T20:11:07.993Z,12.46
2022-09-12T20:13:36.140Z,12.44
2022-09-12T20:16:08.655Z,12.22
2022-09-12T20:18:38.185Z,12.15
2022-09-12T20:21:10.684Z,12.37
2022-09-12T20:23:40.855Z,12.34
2022-09-12T20:26:09.894Z,12.22
2022-09-12T20:28:38.517Z,12.18
2022-09-12T20:31:08.559Z,12.17
2022-09-12T20:33:36.642Z,12.07
2022-09-12T20:36:08.285Z,12.09
2022-09-12T20:38:36.796Z,12.08
2022-09-12T20:41:06.711Z,12.05
2022-09-12T20:43:34.825Z,12.09
2022-09-12T20:46:06.644Z,12.07
2022-09-12T20:48:34.835Z,11.94
2022-09-12T20:51:03.024Z,11.97
2022-09-12T20:53:35.000Z,11.99
2022-09-12T20:56:03.701Z,11.90
2022-09-12T20:58:31.782Z,11.56
2022-09-12T21:00:59.965Z,11.81
2022-09-12T21:03:28.577Z,11.52
2022-09-12T21:05:57.045Z,11.64
2022-09-12T21:08:25.164Z,11.66
2022-09-12T21:10:54.725Z,11.68
2022-09-12T21:13:22.826Z,11.69
2022-09-12T21:15:51.108Z,11.69
2022-09-12T21:18:19.185Z,11.69
2022-09-12T21:20:53.022Z,11.56
2022-09-12T21:23:21.195Z,11.53
2022-09-12T21:25:52.355Z,11.49
2022-09-12T21:28:23.005Z,11.52
2022-09-12T21:30:51.836Z,11.43
2022-09-12T21:33:21.055Z,11.46
2022-09-12T21:35:49.745Z,11.47
2022-09-12T21:38:18.485Z,11.43
2022-09-12T21:40:46.933Z,11.44
2022-09-12T21:43:15.105Z,11.33
2022-09-12T21:45:44.645Z,11.30
2022-09-12T21:48:13.023Z,11.25
2022-09-12T21:50:41.746Z,11.09
2022-09-12T21:53:09.866Z,11.31
2022-09-12T21:55:38.023Z,11.30
2022-09-12T21:58:06.265Z,11.26
2022-09-12T22:00:34.414Z,11.21
2022-09-12T22:03:05.036Z,11.25
2022-09-12T22:05:33.825Z,11.21
2022-09-12T22:08:02.073Z,11.20
2022-09-12T22:10:30.245Z,11.24
2022-09-12T22:12:58.368Z,11.39
2022-09-12T22:15:41.841Z,11.33
2022-09-12T22:18:11.609Z,11.33
2022-09-12T22:20:39.757Z,11.25
2022-09-12T22:23:25.380Z,11.13
2022-09-12T22:25:55.513Z,10.95
2022-09-12T22:28:24.635Z,11.10
2022-09-12T22:30:54.496Z,11.04
2022-09-12T22:33:24.045Z,11.10
2022-09-12T22:35:52.166Z,11.05
2022-09-12T22:38:20.296Z,10.97
2022-09-12T22:40:48.424Z,10.93
2022-09-12T22:43:16.704Z,10.86
2022-09-12T22:45:44.866Z,10.94
2022-09-12T22:48:13.046Z,10.95
2022-09-12T22:50:42.916Z,10.82
2022-09-12T22:53:11.016Z,10.86
2022-09-12T22:55:39.612Z,10.86
2022-09-12T22:58:07.684Z,10.85
2022-09-12T23:00:35.992Z,10.81
2022-09-12T23:03:04.177Z,10.77
2022-09-12T23:05:32.557Z,10.70
2022-09-12T23:08:02.136Z,10.48
2022-09-12T23:10:30.246Z,10.68
2022-09-12T23:12:58.308Z,10.64
2022-09-12T23:15:26.436Z,10.61
2022-09-12T23:17:54.555Z,10.63
2022-09-12T23:20:22.748Z,10.61
2022-09-12T23:22:50.887Z,10.60
2022-09-12T23:25:23.796Z,10.50
2022-09-12T23:27:52.287Z,10.27
2022-09-12T23:30:21.743Z,10.45
2022-09-12T23:32:50.227Z,10.44
2022-09-12T23:35:19.897Z,10.24
2022-09-12T23:37:48.056Z,10.50
2022-09-12T23:40:16.389Z,10.45
2022-09-12T23:42:45.987Z,10.37
2022-09-12T23:45:14.142Z,10.27
2022-09-12T23:47:42.248Z,10.06
2022-09-12T23:50:10.657Z,10.30
2022-09-12T23:52:38.725Z,10.20
2022-09-12T23:55:07.568Z,10.18
2022-09-12T23:57:35.687Z,10.09
